sensor_id;sensor_type;location;lat;lon;timestamp;temperature;humidity
72865;DHT22;61000;48.120;11.548;2023-04-07T00:02:17;5.40;91.10
72865;DHT22;61000;48.120;11.548;2023-04-07T00:04:44;5.40;91.40
72865;DHT22;61000;48.120;11.548;2023-04-07T00:07:11;5.50;91.30
72865;DHT22;61000;48.120;11.548;2023-04-07T00:09:38;5.50;91.20
72865;DHT22;61000;48.120;11.548;2023-04-07T00:12:04;5.50;91.30
72865;DHT22;61000;48.120;11.548;2023-04-07T00:14:31;5.40;91.40
72865;DHT22;61000;48.120;11.548;2023-04-07T00:17:00;5.50;91.50
72865;DHT22;61000;48.120;11.548;2023-04-07T00:19:27;5.50;91.70
72865;DHT22;61000;48.120;11.548;2023-04-07T00:21:53;5.40;91.70
72865;DHT22;61000;48.120;11.548;2023-04-07T00:24:21;5.40;91.80
72865;DHT22;61000;48.120;11.548;2023-04-07T00:26:48;5.40;92.00
72865;DHT22;61000;48.120;11.548;2023-04-07T00:29:14;5.50;92.20
72865;DHT22;61000;48.120;11.548;2023-04-07T00:31:41;5.50;92.50
72865;DHT22;61000;48.120;11.548;2023-04-07T00:34:10;5.50;92.50
72865;DHT22;61000;48.120;11.548;2023-04-07T00:36:36;5.50;92.70
72865;DHT22;61000;48.120;11.548;2023-04-07T00:39:03;5.50;92.90
72865;DHT22;61000;48.120;11.548;2023-04-07T00:41:33;5.40;93.10
72865;DHT22;61000;48.120;11.548;2023-04-07T00:44:00;5.40;93.10
72865;DHT22;61000;48.120;11.548;2023-04-07T00:46:27;5.40;93.30
72865;DHT22;61000;48.120;11.548;2023-04-07T00:48:54;5.40;93.40
72865;DHT22;61000;48.120;11.548;2023-04-07T00:51:22;5.40;93.50
72865;DHT22;61000;48.120;11.548;2023-04-07T00:53:49;5.40;93.40
72865;DHT22;61000;48.120;11.548;2023-04-07T00:56:16;5.40;93.40
72865;DHT22;61000;48.120;11.548;2023-04-07T00:58:43;5.50;93.40
72865;DHT22;61000;48.120;11.548;2023-04-07T01:01:14;5.50;93.30
72865;DHT22;61000;48.120;11.548;2023-04-07T01:03:47;5.50;93.10
72865;DHT22;61000;48.120;11.548;2023-04-07T01:06:17;5.60;93.00
72865;DHT22;61000;48.120;11.548;2023-04-07T01:08:52;5.60;93.00
72865;DHT22;61000;48.120;11.548;2023-04-07T01:11:24;5.50;92.80
72865;DHT22;61000;48.120;11.548;2023-04-07T01:13:54;5.70;93.00
72865;DHT22;61000;48.120;11.548;2023-04-07T01:16:44;5.80;93.00
72865;DHT22;61000;48.120;11.548;2023-04-07T01:21:59;5.60;93.20
72865;DHT22;61000;48.120;11.548;2023-04-07T01:24:41;5.70;93.30
72865;DHT22;61000;48.120;11.548;2023-04-07T01:27:20;5.50;92.90
72865;DHT22;61000;48.120;11.548;2023-04-07T01:29:49;5.60;93.40
72865;DHT22;61000;48.120;11.548;2023-04-07T01:32:19;5.50;93.60
72865;DHT22;61000;48.120;11.548;2023-04-07T01:34:48;5.60;93.80
72865;DHT22;61000;48.120;11.548;2023-04-07T01:37:16;5.50;94.00
72865;DHT22;61000;48.120;11.548;2023-04-07T01:39:43;5.50;94.10
72865;DHT22;61000;48.120;11.548;2023-04-07T01:42:11;5.50;94.40
72865;DHT22;61000;48.120;11.548;2023-04-07T01:44:39;5.50;94.70
72865;DHT22;61000;48.120;11.548;2023-04-07T01:47:08;5.50;94.90
72865;DHT22;61000;48.120;11.548;2023-04-07T01:49:35;5.60;95.00
72865;DHT22;61000;48.120;11.548;2023-04-07T01:52:04;5.60;95.20
72865;DHT22;61000;48.120;11.548;2023-04-07T01:54:31;5.40;95.30
72865;DHT22;61000;48.120;11.548;2023-04-07T01:56:58;5.50;95.60
72865;DHT22;61000;48.120;11.548;2023-04-07T01:59:26;5.40;95.70
72865;DHT22;61000;48.120;11.548;2023-04-07T02:01:54;5.50;96.10
72865;DHT22;61000;48.120;11.548;2023-04-07T02:04:28;5.40;96.30
72865;DHT22;61000;48.120;11.548;2023-04-07T02:07:00;5.40;96.50
72865;DHT22;61000;48.120;11.548;2023-04-07T02:09:37;5.40;96.90
72865;DHT22;61000;48.120;11.548;2023-04-07T02:12:06;5.50;97.00
72865;DHT22;61000;48.120;11.548;2023-04-07T02:14:39;5.50;97.30
72865;DHT22;61000;48.120;11.548;2023-04-07T02:17:09;5.70;97.60
72865;DHT22;61000;48.120;11.548;2023-04-07T02:19:38;5.60;97.70
72865;DHT22;61000;48.120;11.548;2023-04-07T02:22:06;5.60;97.90
72865;DHT22;61000;48.120;11.548;2023-04-07T02:24:33;5.70;98.30
72865;DHT22;61000;48.120;11.548;2023-04-07T02:27:00;5.70;98.60
72865;DHT22;61000;48.120;11.548;2023-04-07T02:29:27;5.70;98.90
72865;DHT22;61000;48.120;11.548;2023-04-07T02:31:55;5.70;99.40
72865;DHT22;61000;48.120;11.548;2023-04-07T02:34:22;5.70;99.90
72865;DHT22;61000;48.120;11.548;2023-04-07T02:36:50;5.70;99.90
72865;DHT22;61000;48.120;11.548;2023-04-07T02:39:17;5.80;99.90
72865;DHT22;61000;48.120;11.548;2023-04-07T02:41:44;5.80;99.90
72865;DHT22;61000;48.120;11.548;2023-04-07T02:44:11;5.90;99.90
72865;DHT22;61000;48.120;11.548;2023-04-07T02:46:38;5.80;99.90
72865;DHT22;61000;48.120;11.548;2023-04-07T02:49:06;5.90;99.90
72865;DHT22;61000;48.120;11.548;2023-04-07T02:51:32;5.80;99.90
72865;DHT22;61000;48.120;11.548;2023-04-07T02:54:01;5.80;99.90
72865;DHT22;61000;48.120;11.548;2023-04-07T02:56:28;5.80;99.90
72865;DHT22;61000;48.120;11.548;2023-04-07T02:58:55;5.80;99.90
72865;DHT22;61000;48.120;11.548;2023-04-07T03:01:22;5.80;99.90
72865;DHT22;61000;48.120;11.548;2023-04-07T03:03:49;5.80;99.90
72865;DHT22;61000;48.120;11.548;2023-04-07T03:06:20;5.80;99.90
72865;DHT22;61000;48.120;11.548;2023-04-07T03:09:02;5.80;99.90
72865;DHT22;61000;48.120;11.548;2023-04-07T03:11:30;5.80;99.90
72865;DHT22;61000;48.120;11.548;2023-04-07T03:13:58;5.80;99.90
72865;DHT22;61000;48.120;11.548;2023-04-07T03:16:27;5.70;99.90
72865;DHT22;61000;48.120;11.548;2023-04-07T03:19:02;5.70;99.90
72865;DHT22;61000;48.120;11.548;2023-04-07T03:21:33;5.70;99.90
72865;DHT22;61000;48.120;11.548;2023-04-07T03:24:00;5.70;99.90
72865;DHT22;61000;48.120;11.548;2023-04-07T03:26:28;5.60;99.90
72865;DHT22;61000;48.120;11.548;2023-04-07T03:28:56;5.60;99.90
72865;DHT22;61000;48.120;11.548;2023-04-07T03:31:23;5.70;99.90
72865;DHT22;61000;48.120;11.548;2023-04-07T03:33:52;5.60;99.90
72865;DHT22;61000;48.120;11.548;2023-04-07T03:36:20;5.70;99.90
72865;DHT22;61000;48.120;11.548;2023-04-07T03:38:47;5.60;99.90
72865;DHT22;61000;48.120;11.548;2023-04-07T03:41:16;5.60;99.90
72865;DHT22;61000;48.120;11.548;2023-04-07T03:43:44;5.60;99.90
72865;DHT22;61000;48.120;11.548;2023-04-07T03:46:11;5.60;99.90
72865;DHT22;61000;48.120;11.548;2023-04-07T03:48:38;5.50;99.90
72865;DHT22;61000;48.120;11.548;2023-04-07T03:51:07;5.50;99.90
72865;DHT22;61000;48.120;11.548;2023-04-07T03:53:34;5.50;99.90
72865;DHT22;61000;48.120;11.548;2023-04-07T03:56:13;5.50;99.90
72865;DHT22;61000;48.120;11.548;2023-04-07T03:58:44;5.50;99.90
72865;DHT22;61000;48.120;11.548;2023-04-07T04:01:19;5.50;99.90
72865;DHT22;61000;48.120;11.548;2023-04-07T04:03:49;5.50;99.90
72865;DHT22;61000;48.120;11.548;2023-04-07T04:06:24;5.50;99.90
72865;DHT22;61000;48.120;11.548;2023-04-07T04:08:53;5.40;99.90
72865;DHT22;61000;48.120;11.548;2023-04-07T04:11:21;5.40;99.90
72865;DHT22;61000;48.120;11.548;2023-04-07T04:13:57;5.40;99.90
72865;DHT22;61000;48.120;11.548;2023-04-07T04:16:25;5.40;99.90
72865;DHT22;61000;48.120;11.548;2023-04-07T04:18:54;5.50;99.90
72865;DHT22;61000;48.120;11.548;2023-04-07T04:21:21;5.50;99.90
72865;DHT22;61000;48.120;11.548;2023-04-07T04:23:49;5.30;99.90
72865;DHT22;61000;48.120;11.548;2023-04-07T04:26:16;5.30;99.90
72865;DHT22;61000;48.120;11.548;2023-04-07T04:28:44;5.30;99.90
72865;DHT22;61000;48.120;11.548;2023-04-07T04:31:13;5.20;99.90
72865;DHT22;61000;48.120;11.548;2023-04-07T04:33:42;5.30;99.90
72865;DHT22;61000;48.120;11.548;2023-04-07T04:36:09;5.20;99.90
72865;DHT22;61000;48.120;11.548;2023-04-07T04:38:37;5.20;99.90
72865;DHT22;61000;48.120;11.548;2023-04-07T04:41:12;5.20;99.90
72865;DHT22;61000;48.120;11.548;2023-04-07T04:43:39;5.30;99.90
72865;DHT22;61000;48.120;11.548;2023-04-07T04:46:07;5.20;99.90
72865;DHT22;61000;48.120;11.548;2023-04-07T04:48:41;5.20;99.90
72865;DHT22;61000;48.120;11.548;2023-04-07T04:51:07;5.20;99.90
72865;DHT22;61000;48.120;11.548;2023-04-07T04:53:36;5.20;99.90
72865;DHT22;61000;48.120;11.548;2023-04-07T04:56:05;5.10;99.90
72865;DHT22;61000;48.120;11.548;2023-04-07T04:58:38;5.10;99.90
72865;DHT22;61000;48.120;11.548;2023-04-07T05:01:09;5.10;99.90
72865;DHT22;61000;48.120;11.548;2023-04-07T05:03:42;5.10;99.90
72865;DHT22;61000;48.120;11.548;2023-04-07T05:06:28;5.10;99.90
72865;DHT22;61000;48.120;11.548;2023-04-07T05:09:00;5.20;99.90
72865;DHT22;61000;48.120;11.548;2023-04-07T05:11:33;5.10;99.90
72865;DHT22;61000;48.120;11.548;2023-04-07T05:14:00;5.10;99.90
72865;DHT22;61000;48.120;11.548;2023-04-07T05:16:27;5.10;99.90
72865;DHT22;61000;48.120;11.548;2023-04-07T05:18:56;5.10;99.90
72865;DHT22;61000;48.120;11.548;2023-04-07T05:21:24;5.20;99.90
72865;DHT22;61000;48.120;11.548;2023-04-07T05:23:53;5.20;99.90
72865;DHT22;61000;48.120;11.548;2023-04-07T05:26:22;5.20;99.90
72865;DHT22;61000;48.120;11.548;2023-04-07T05:28:50;5.20;99.90
72865;DHT22;61000;48.120;11.548;2023-04-07T05:31:20;5.20;99.90
72865;DHT22;61000;48.120;11.548;2023-04-07T05:33:50;5.20;99.90
72865;DHT22;61000;48.120;11.548;2023-04-07T05:36:20;5.10;99.90
72865;DHT22;61000;48.120;11.548;2023-04-07T05:38:49;5.20;99.90
72865;DHT22;61000;48.120;11.548;2023-04-07T05:41:17;5.20;99.90
72865;DHT22;61000;48.120;11.548;2023-04-07T05:43:44;5.20;99.90
72865;DHT22;61000;48.120;11.548;2023-04-07T05:46:12;5.30;99.90
72865;DHT22;61000;48.120;11.548;2023-04-07T05:48:47;5.20;99.90
72865;DHT22;61000;48.120;11.548;2023-04-07T05:51:14;5.30;99.90
72865;DHT22;61000;48.120;11.548;2023-04-07T05:53:43;5.30;99.90
72865;DHT22;61000;48.120;11.548;2023-04-07T05:56:10;5.50;99.90
72865;DHT22;61000;48.120;11.548;2023-04-07T05:58:43;5.40;99.90
72865;DHT22;61000;48.120;11.548;2023-04-07T06:01:12;5.50;99.90
72865;DHT22;61000;48.120;11.548;2023-04-07T06:03:39;5.50;99.90
72865;DHT22;61000;48.120;11.548;2023-04-07T06:06:19;5.50;99.90
72865;DHT22;61000;48.120;11.548;2023-04-07T06:08:47;5.60;99.90
72865;DHT22;61000;48.120;11.548;2023-04-07T06:11:14;5.60;99.90
72865;DHT22;61000;48.120;11.548;2023-04-07T06:13:41;5.70;99.90
72865;DHT22;61000;48.120;11.548;2023-04-07T06:16:08;5.70;99.90
72865;DHT22;61000;48.120;11.548;2023-04-07T06:18:36;5.70;99.90
72865;DHT22;61000;48.120;11.548;2023-04-07T06:21:05;5.70;99.90
72865;DHT22;61000;48.120;11.548;2023-04-07T06:23:32;5.80;99.90
72865;DHT22;61000;48.120;11.548;2023-04-07T06:26:01;5.80;99.90
72865;DHT22;61000;48.120;11.548;2023-04-07T06:28:28;5.70;99.90
72865;DHT22;61000;48.120;11.548;2023-04-07T06:30:57;5.80;99.90
72865;DHT22;61000;48.120;11.548;2023-04-07T06:33:24;5.80;99.90
72865;DHT22;61000;48.120;11.548;2023-04-07T06:35:53;5.70;99.90
72865;DHT22;61000;48.120;11.548;2023-04-07T06:38:21;5.70;99.90
72865;DHT22;61000;48.120;11.548;2023-04-07T06:40:48;5.70;99.90
72865;DHT22;61000;48.120;11.548;2023-04-07T06:43:16;5.70;99.90
72865;DHT22;61000;48.120;11.548;2023-04-07T06:45:50;5.80;99.90
72865;DHT22;61000;48.120;11.548;2023-04-07T06:48:16;5.80;99.90
72865;DHT22;61000;48.120;11.548;2023-04-07T06:50:45;5.90;99.90
72865;DHT22;61000;48.120;11.548;2023-04-07T06:53:12;5.90;99.90
72865;DHT22;61000;48.120;11.548;2023-04-07T06:55:40;6.00;99.90
72865;DHT22;61000;48.120;11.548;2023-04-07T06:58:07;6.10;99.90
72865;DHT22;61000;48.120;11.548;2023-04-07T07:00:36;6.10;99.90
72865;DHT22;61000;48.120;11.548;2023-04-07T07:03:03;6.10;99.90
72865;DHT22;61000;48.120;11.548;2023-04-07T07:05:30;6.20;99.90
72865;DHT22;61000;48.120;11.548;2023-04-07T07:07:57;6.30;99.90
72865;DHT22;61000;48.120;11.548;2023-04-07T07:10:24;6.40;99.90
72865;DHT22;61000;48.120;11.548;2023-04-07T07:12:51;6.40;99.90
72865;DHT22;61000;48.120;11.548;2023-04-07T07:15:18;6.50;99.90
72865;DHT22;61000;48.120;11.548;2023-04-07T07:20:13;6.70;99.90
72865;DHT22;61000;48.120;11.548;2023-04-07T07:22:40;6.90;99.90
72865;DHT22;61000;48.120;11.548;2023-04-07T07:25:08;7.10;99.90
72865;DHT22;61000;48.120;11.548;2023-04-07T07:27:34;7.10;99.90
72865;DHT22;61000;48.120;11.548;2023-04-07T07:30:01;7.30;99.90
72865;DHT22;61000;48.120;11.548;2023-04-07T07:32:28;7.30;99.90
72865;DHT22;61000;48.120;11.548;2023-04-07T07:34:57;7.50;99.90
72865;DHT22;61000;48.120;11.548;2023-04-07T07:37:24;7.30;99.90
72865;DHT22;61000;48.120;11.548;2023-04-07T07:39:51;7.40;99.90
72865;DHT22;61000;48.120;11.548;2023-04-07T07:42:18;7.50;99.90
72865;DHT22;61000;48.120;11.548;2023-04-07T07:44:45;7.50;99.90
72865;DHT22;61000;48.120;11.548;2023-04-07T07:47:11;7.60;99.90
72865;DHT22;61000;48.120;11.548;2023-04-07T07:49:38;7.60;99.90
72865;DHT22;61000;48.120;11.548;2023-04-07T07:52:07;7.50;99.90
72865;DHT22;61000;48.120;11.548;2023-04-07T07:54:35;7.50;99.90
72865;DHT22;61000;48.120;11.548;2023-04-07T07:57:02;7.50;99.90
72865;DHT22;61000;48.120;11.548;2023-04-07T07:59:30;7.50;99.90
72865;DHT22;61000;48.120;11.548;2023-04-07T08:01:58;7.50;99.90
72865;DHT22;61000;48.120;11.548;2023-04-07T08:04:25;7.50;99.90
72865;DHT22;61000;48.120;11.548;2023-04-07T08:06:52;7.60;99.90
72865;DHT22;61000;48.120;11.548;2023-04-07T08:09:21;7.70;99.90
72865;DHT22;61000;48.120;11.548;2023-04-07T08:36:23;8.30;99.90
72865;DHT22;61000;48.120;11.548;2023-04-07T08:38:50;8.50;99.90
72865;DHT22;61000;48.120;11.548;2023-04-07T08:41:21;8.50;99.90
72865;DHT22;61000;48.120;11.548;2023-04-07T08:43:52;8.50;99.90
72865;DHT22;61000;48.120;11.548;2023-04-07T08:46:21;8.50;99.90
72865;DHT22;61000;48.120;11.548;2023-04-07T08:48:51;8.50;99.90
72865;DHT22;61000;48.120;11.548;2023-04-07T08:51:26;8.60;99.90
72865;DHT22;61000;48.120;11.548;2023-04-07T08:53:53;8.80;99.90
72865;DHT22;61000;48.120;11.548;2023-04-07T08:56:24;9.10;97.90
72865;DHT22;61000;48.120;11.548;2023-04-07T08:58:53;9.30;99.90
72865;DHT22;61000;48.120;11.548;2023-04-07T09:01:21;9.40;99.20
72865;DHT22;61000;48.120;11.548;2023-04-07T09:03:49;9.50;99.90
72865;DHT22;61000;48.120;11.548;2023-04-07T09:06:16;9.40;99.90
72865;DHT22;61000;48.120;11.548;2023-04-07T09:08:43;9.50;99.90
72865;DHT22;61000;48.120;11.548;2023-04-07T09:11:11;9.50;99.90
72865;DHT22;61000;48.120;11.548;2023-04-07T09:13:37;9.70;99.90
72865;DHT22;61000;48.120;11.548;2023-04-07T09:16:06;9.80;99.90
72865;DHT22;61000;48.120;11.548;2023-04-07T09:18:33;9.70;99.90
72865;DHT22;61000;48.120;11.548;2023-04-07T09:21:03;9.80;99.90
72865;DHT22;61000;48.120;11.548;2023-04-07T09:23:31;10.00;99.90
72865;DHT22;61000;48.120;11.548;2023-04-07T09:26:00;10.10;99.90
72865;DHT22;61000;48.120;11.548;2023-04-07T09:28:40;10.30;99.90
72865;DHT22;61000;48.120;11.548;2023-04-07T09:31:09;10.30;93.00
72865;DHT22;61000;48.120;11.548;2023-04-07T09:33:36;10.80;92.20
72865;DHT22;61000;48.120;11.548;2023-04-07T09:36:04;11.20;91.70
72865;DHT22;61000;48.120;11.548;2023-04-07T09:38:32;11.90;95.60
72865;DHT22;61000;48.120;11.548;2023-04-07T09:41:07;12.50;89.00
72865;DHT22;61000;48.120;11.548;2023-04-07T09:43:35;13.00;86.20
72865;DHT22;61000;48.120;11.548;2023-04-07T09:48:39;14.10;96.20
72865;DHT22;61000;48.120;11.548;2023-04-07T09:51:08;14.60;92.30
72865;DHT22;61000;48.120;11.548;2023-04-07T09:53:43;14.20;89.30
72865;DHT22;61000;48.120;11.548;2023-04-07T09:56:11;14.70;78.30
72865;DHT22;61000;48.120;11.548;2023-04-07T09:58:39;14.70;83.70
72865;DHT22;61000;48.120;11.548;2023-04-07T10:01:07;14.60;82.70
72865;DHT22;61000;48.120;11.548;2023-04-07T10:03:35;15.40;89.40
72865;DHT22;61000;48.120;11.548;2023-04-07T10:06:03;15.80;67.70
72865;DHT22;61000;48.120;11.548;2023-04-07T10:08:32;15.60;66.40
72865;DHT22;61000;48.120;11.548;2023-04-07T10:11:00;15.50;65.80
72865;DHT22;61000;48.120;11.548;2023-04-07T10:15:55;13.80;69.40
72865;DHT22;61000;48.120;11.548;2023-04-07T10:18:28;13.90;72.60
72865;DHT22;61000;48.120;11.548;2023-04-07T10:20:59;14.30;70.10
72865;DHT22;61000;48.120;11.548;2023-04-07T10:23:33;14.00;69.60
72865;DHT22;61000;48.120;11.548;2023-04-07T10:26:04;13.30;70.90
72865;DHT22;61000;48.120;11.548;2023-04-07T10:28:33;13.60;72.30
72865;DHT22;61000;48.120;11.548;2023-04-07T10:31:01;13.20;72.40
72865;DHT22;61000;48.120;11.548;2023-04-07T10:33:44;13.10;72.70
72865;DHT22;61000;48.120;11.548;2023-04-07T10:36:12;12.90;73.70
72865;DHT22;61000;48.120;11.548;2023-04-07T10:38:39;13.20;74.60
72865;DHT22;61000;48.120;11.548;2023-04-07T10:41:32;13.30;73.30
72865;DHT22;61000;48.120;11.548;2023-04-07T10:44:00;13.00;73.10
72865;DHT22;61000;48.120;11.548;2023-04-07T10:47:01;12.60;74.70
72865;DHT22;61000;48.120;11.548;2023-04-07T10:49:29;12.50;75.40
72865;DHT22;61000;48.120;11.548;2023-04-07T10:52:22;12.30;76.30
72865;DHT22;61000;48.120;11.548;2023-04-07T10:58:17;12.00;77.60
72865;DHT22;61000;48.120;11.548;2023-04-07T11:01:16;11.90;78.00
72865;DHT22;61000;48.120;11.548;2023-04-07T11:03:57;12.20;77.50
72865;DHT22;61000;48.120;11.548;2023-04-07T11:06:24;12.60;77.70
72865;DHT22;61000;48.120;11.548;2023-04-07T11:08:53;12.60;77.00
72865;DHT22;61000;48.120;11.548;2023-04-07T11:11:36;12.20;76.80
72865;DHT22;61000;48.120;11.548;2023-04-07T11:14:04;12.00;76.60
72865;DHT22;61000;48.120;11.548;2023-04-07T11:16:39;11.90;77.60
72865;DHT22;61000;48.120;11.548;2023-04-07T11:19:07;12.00;77.20
72865;DHT22;61000;48.120;11.548;2023-04-07T11:21:34;12.00;77.90
72865;DHT22;61000;48.120;11.548;2023-04-07T11:24:03;12.00;77.20
72865;DHT22;61000;48.120;11.548;2023-04-07T11:26:36;12.10;77.20
72865;DHT22;61000;48.120;11.548;2023-04-07T11:29:03;12.20;76.90
72865;DHT22;61000;48.120;11.548;2023-04-07T11:31:31;12.30;75.90
72865;DHT22;61000;48.120;11.548;2023-04-07T11:33:59;12.40;77.00
72865;DHT22;61000;48.120;11.548;2023-04-07T11:36:28;12.50;76.40
72865;DHT22;61000;48.120;11.548;2023-04-07T11:38:55;12.40;75.20
72865;DHT22;61000;48.120;11.548;2023-04-07T11:41:25;12.40;75.30
72865;DHT22;61000;48.120;11.548;2023-04-07T11:44:07;12.40;74.70
72865;DHT22;61000;48.120;11.548;2023-04-07T11:46:34;12.40;75.20
72865;DHT22;61000;48.120;11.548;2023-04-07T11:49:08;12.50;75.10
72865;DHT22;61000;48.120;11.548;2023-04-07T11:51:36;12.40;75.30
72865;DHT22;61000;48.120;11.548;2023-04-07T11:54:03;12.50;74.40
72865;DHT22;61000;48.120;11.548;2023-04-07T11:56:40;12.40;74.20
72865;DHT22;61000;48.120;11.548;2023-04-07T11:59:08;12.50;75.20
72865;DHT22;61000;48.120;11.548;2023-04-07T12:01:39;12.50;75.50
72865;DHT22;61000;48.120;11.548;2023-04-07T12:04:11;12.30;75.50
72865;DHT22;61000;48.120;11.548;2023-04-07T12:06:38;12.40;75.70
72865;DHT22;61000;48.120;11.548;2023-04-07T12:09:07;12.40;75.50
72865;DHT22;61000;48.120;11.548;2023-04-07T12:11:36;12.50;75.30
72865;DHT22;61000;48.120;11.548;2023-04-07T12:14:03;12.60;75.30
72865;DHT22;61000;48.120;11.548;2023-04-07T12:16:31;12.70;74.50
72865;DHT22;61000;48.120;11.548;2023-04-07T12:18:58;12.60;74.70
72865;DHT22;61000;48.120;11.548;2023-04-07T12:21:25;12.70;74.90
72865;DHT22;61000;48.120;11.548;2023-04-07T12:23:53;12.80;75.00
72865;DHT22;61000;48.120;11.548;2023-04-07T12:26:19;12.80;74.60
72865;DHT22;61000;48.120;11.548;2023-04-07T12:28:49;12.60;74.10
72865;DHT22;61000;48.120;11.548;2023-04-07T12:31:15;12.90;75.20
72865;DHT22;61000;48.120;11.548;2023-04-07T12:33:42;12.60;74.70
72865;DHT22;61000;48.120;11.548;2023-04-07T12:36:09;12.70;75.10
72865;DHT22;61000;48.120;11.548;2023-04-07T12:38:36;12.70;75.20
72865;DHT22;61000;48.120;11.548;2023-04-07T12:41:03;12.60;74.40
72865;DHT22;61000;48.120;11.548;2023-04-07T12:43:30;12.50;74.60
72865;DHT22;61000;48.120;11.548;2023-04-07T12:45:58;12.50;75.60
72865;DHT22;61000;48.120;11.548;2023-04-07T12:48:25;12.40;75.50
72865;DHT22;61000;48.120;11.548;2023-04-07T12:50:53;12.20;75.60
72865;DHT22;61000;48.120;11.548;2023-04-07T12:53:20;12.10;76.40
72865;DHT22;61000;48.120;11.548;2023-04-07T12:55:47;12.30;77.10
72865;DHT22;61000;48.120;11.548;2023-04-07T12:58:14;12.30;77.50
72865;DHT22;61000;48.120;11.548;2023-04-07T13:00:41;12.50;78.40
72865;DHT22;61000;48.120;11.548;2023-04-07T13:03:10;12.40;76.90
72865;DHT22;61000;48.120;11.548;2023-04-07T13:05:37;12.30;76.70
72865;DHT22;61000;48.120;11.548;2023-04-07T13:08:04;12.30;77.20
72865;DHT22;61000;48.120;11.548;2023-04-07T13:10:32;12.20;77.90
72865;DHT22;61000;48.120;11.548;2023-04-07T13:12:59;12.10;78.40
72865;DHT22;61000;48.120;11.548;2023-04-07T13:15:26;12.00;78.70
72865;DHT22;61000;48.120;11.548;2023-04-07T13:17:53;12.00;79.40
72865;DHT22;61000;48.120;11.548;2023-04-07T13:20:22;12.10;78.70
72865;DHT22;61000;48.120;11.548;2023-04-07T13:22:52;11.90;78.70
72865;DHT22;61000;48.120;11.548;2023-04-07T13:25:19;11.80;79.20
72865;DHT22;61000;48.120;11.548;2023-04-07T13:27:46;11.60;80.00
72865;DHT22;61000;48.120;11.548;2023-04-07T13:30:13;11.50;80.10
72865;DHT22;61000;48.120;11.548;2023-04-07T13:32:40;11.50;80.70
72865;DHT22;61000;48.120;11.548;2023-04-07T13:35:07;11.70;80.70
72865;DHT22;61000;48.120;11.548;2023-04-07T13:37:36;11.70;80.20
72865;DHT22;61000;48.120;11.548;2023-04-07T13:40:04;11.50;80.40
72865;DHT22;61000;48.120;11.548;2023-04-07T13:42:31;11.40;80.90
72865;DHT22;61000;48.120;11.548;2023-04-07T13:44:57;11.40;81.30
72865;DHT22;61000;48.120;11.548;2023-04-07T13:47:25;11.50;81.20
72865;DHT22;61000;48.120;11.548;2023-04-07T13:49:54;11.60;81.90
72865;DHT22;61000;48.120;11.548;2023-04-07T13:52:21;11.50;80.80
72865;DHT22;61000;48.120;11.548;2023-04-07T13:54:50;11.80;81.20
72865;DHT22;61000;48.120;11.548;2023-04-07T13:57:17;11.70;81.00
72865;DHT22;61000;48.120;11.548;2023-04-07T13:59:45;11.80;80.80
72865;DHT22;61000;48.120;11.548;2023-04-07T14:02:12;12.00;80.30
72865;DHT22;61000;48.120;11.548;2023-04-07T14:04:40;11.80;80.00
72865;DHT22;61000;48.120;11.548;2023-04-07T14:07:07;11.80;80.30
72865;DHT22;61000;48.120;11.548;2023-04-07T14:09:34;12.00;80.10
72865;DHT22;61000;48.120;11.548;2023-04-07T14:12:02;12.10;79.90
72865;DHT22;61000;48.120;11.548;2023-04-07T14:14:29;12.10;79.60
72865;DHT22;61000;48.120;11.548;2023-04-07T14:16:56;12.00;79.60
72865;DHT22;61000;48.120;11.548;2023-04-07T14:19:23;12.20;79.80
72865;DHT22;61000;48.120;11.548;2023-04-07T14:21:50;12.20;79.90
72865;DHT22;61000;48.120;11.548;2023-04-07T14:24:17;12.00;79.80
72865;DHT22;61000;48.120;11.548;2023-04-07T14:26:45;12.00;80.90
72865;DHT22;61000;48.120;11.548;2023-04-07T14:29:13;12.00;80.80
72865;DHT22;61000;48.120;11.548;2023-04-07T14:31:41;11.80;81.20
72865;DHT22;61000;48.120;11.548;2023-04-07T14:34:09;11.80;81.40
72865;DHT22;61000;48.120;11.548;2023-04-07T14:36:36;11.80;81.80
72865;DHT22;61000;48.120;11.548;2023-04-07T14:39:03;11.80;81.70
72865;DHT22;61000;48.120;11.548;2023-04-07T14:41:30;11.70;82.40
72865;DHT22;61000;48.120;11.548;2023-04-07T14:43:57;11.80;82.80
72865;DHT22;61000;48.120;11.548;2023-04-07T14:46:25;11.90;82.40
72865;DHT22;61000;48.120;11.548;2023-04-07T14:48:52;11.80;82.10
72865;DHT22;61000;48.120;11.548;2023-04-07T14:51:19;11.80;81.70
72865;DHT22;61000;48.120;11.548;2023-04-07T14:53:47;11.70;81.70
72865;DHT22;61000;48.120;11.548;2023-04-07T14:56:18;11.60;82.10
72865;DHT22;61000;48.120;11.548;2023-04-07T14:58:45;11.60;82.20
72865;DHT22;61000;48.120;11.548;2023-04-07T15:01:12;11.50;82.50
72865;DHT22;61000;48.120;11.548;2023-04-07T15:03:41;11.60;83.00
72865;DHT22;61000;48.120;11.548;2023-04-07T15:06:08;11.60;83.00
72865;DHT22;61000;48.120;11.548;2023-04-07T15:08:36;11.50;82.80
72865;DHT22;61000;48.120;11.548;2023-04-07T15:11:03;11.60;83.00
72865;DHT22;61000;48.120;11.548;2023-04-07T15:13:31;11.50;83.10
72865;DHT22;61000;48.120;11.548;2023-04-07T15:16:05;11.50;83.80
72865;DHT22;61000;48.120;11.548;2023-04-07T15:18:32;11.40;84.00
72865;DHT22;61000;48.120;11.548;2023-04-07T15:21:00;11.30;84.20
72865;DHT22;61000;48.120;11.548;2023-04-07T15:23:27;11.30;84.30
72865;DHT22;61000;48.120;11.548;2023-04-07T15:25:54;11.30;84.40
72865;DHT22;61000;48.120;11.548;2023-04-07T15:28:22;11.20;84.90
72865;DHT22;61000;48.120;11.548;2023-04-07T15:30:49;11.20;84.70
72865;DHT22;61000;48.120;11.548;2023-04-07T15:33:16;11.10;84.50
72865;DHT22;61000;48.120;11.548;2023-04-07T15:35:43;11.10;85.10
72865;DHT22;61000;48.120;11.548;2023-04-07T15:38:12;11.10;85.40
72865;DHT22;61000;48.120;11.548;2023-04-07T15:40:40;11.00;85.70
72865;DHT22;61000;48.120;11.548;2023-04-07T15:43:07;11.10;86.00
72865;DHT22;61000;48.120;11.548;2023-04-07T15:45:39;11.10;85.90
72865;DHT22;61000;48.120;11.548;2023-04-07T15:48:07;11.10;86.10
72865;DHT22;61000;48.120;11.548;2023-04-07T15:50:34;11.10;86.30
72865;DHT22;61000;48.120;11.548;2023-04-07T15:53:01;11.10;86.60
72865;DHT22;61000;48.120;11.548;2023-04-07T15:55:30;11.10;86.70
72865;DHT22;61000;48.120;11.548;2023-04-07T15:57:58;11.10;86.90
72865;DHT22;61000;48.120;11.548;2023-04-07T16:00:25;11.00;87.40
72865;DHT22;61000;48.120;11.548;2023-04-07T16:02:52;11.00;87.90
72865;DHT22;61000;48.120;11.548;2023-04-07T16:05:19;11.00;87.60
72865;DHT22;61000;48.120;11.548;2023-04-07T16:07:46;11.00;87.80
72865;DHT22;61000;48.120;11.548;2023-04-07T16:10:13;10.90;87.90
72865;DHT22;61000;48.120;11.548;2023-04-07T16:12:46;10.90;88.30
72865;DHT22;61000;48.120;11.548;2023-04-07T16:15:13;10.90;88.30